sensor_id;sensor_type;location;lat;lon;timestamp;P1;durP1;ratioP1;P2;durP2;ratioP2
36283;SDS011;56085;48.910;9.478;2022-11-23T00:01:18;6.55;;;2.25;;
36283;SDS011;56085;48.910;9.478;2022-11-23T00:03:46;4.25;;;1.98;;
36283;SDS011;56085;48.910;9.478;2022-11-23T00:06:12;4.47;;;1.85;;
36283;SDS011;56085;48.910;9.478;2022-11-23T00:08:38;7.47;;;1.95;;
36283;SDS011;56085;48.910;9.478;2022-11-23T00:11:03;3.40;;;1.80;;
36283;SDS011;56085;48.910;9.478;2022-11-23T00:13:29;6.63;;;2.42;;
36283;SDS011;56085;48.910;9.478;2022-11-23T00:15:55;5.85;;;2.63;;
36283;SDS011;56085;48.910;9.478;2022-11-23T00:18:20;7.43;;;2.88;;
36283;SDS011;56085;48.910;9.478;2022-11-23T00:20:45;5.53;;;2.55;;
36283;SDS011;56085;48.910;9.478;2022-11-23T00:23:10;8.10;;;2.33;;
36283;SDS011;56085;48.910;9.478;2022-11-23T00:25:36;6.05;;;1.92;;
36283;SDS011;56085;48.910;9.478;2022-11-23T00:28:01;6.43;;;2.42;;
36283;SDS011;56085;48.910;9.478;2022-11-23T00:30:26;6.88;;;2.30;;
36283;SDS011;56085;48.910;9.478;2022-11-23T00:32:53;5.65;;;2.60;;
36283;SDS011;56085;48.910;9.478;2022-11-23T00:35:19;6.15;;;2.25;;
36283;SDS011;56085;48.910;9.478;2022-11-23T00:37:44;5.13;;;2.92;;
36283;SDS011;56085;48.910;9.478;2022-11-23T00:40:10;8.35;;;2.40;;
36283;SDS011;56085;48.910;9.478;2022-11-23T00:42:36;5.30;;;2.40;;
36283;SDS011;56085;48.910;9.478;2022-11-23T00:45:01;8.00;;;2.72;;
36283;SDS011;56085;48.910;9.478;2022-11-23T00:47:26;3.72;;;1.80;;
36283;SDS011;56085;48.910;9.478;2022-11-23T00:49:51;3.67;;;1.88;;
36283;SDS011;56085;48.910;9.478;2022-11-23T00:52:17;6.88;;;1.90;;
36283;SDS011;56085;48.910;9.478;2022-11-23T00:54:42;3.45;;;1.42;;
36283;SDS011;56085;48.910;9.478;2022-11-23T00:57:07;3.25;;;1.73;;
36283;SDS011;56085;48.910;9.478;2022-11-23T00:59:33;5.50;;;2.05;;
36283;SDS011;56085;48.910;9.478;2022-11-23T01:01:58;8.88;;;1.92;;
36283;SDS011;56085;48.910;9.478;2022-11-23T01:04:23;4.00;;;1.80;;
36283;SDS011;56085;48.910;9.478;2022-11-23T01:06:49;4.78;;;1.95;;
36283;SDS011;56085;48.910;9.478;2022-11-23T01:09:19;5.78;;;2.15;;
36283;SDS011;56085;48.910;9.478;2022-11-23T01:11:49;4.35;;;2.22;;
36283;SDS011;56085;48.910;9.478;2022-11-23T01:14:14;4.78;;;2.13;;
36283;SDS011;56085;48.910;9.478;2022-11-23T01:16:41;7.43;;;2.15;;
36283;SDS011;56085;48.910;9.478;2022-11-23T01:19:09;6.57;;;2.58;;
36283;SDS011;56085;48.910;9.478;2022-11-23T01:21:36;7.18;;;2.13;;
36283;SDS011;56085;48.910;9.478;2022-11-23T01:24:05;8.13;;;2.15;;
36283;SDS011;56085;48.910;9.478;2022-11-23T01:26:32;4.93;;;1.85;;
36283;SDS011;56085;48.910;9.478;2022-11-23T01:28:58;6.85;;;1.98;;
36283;SDS011;56085;48.910;9.478;2022-11-23T01:31:24;3.33;;;1.90;;
36283;SDS011;56085;48.910;9.478;2022-11-23T01:33:53;6.43;;;2.22;;
36283;SDS011;56085;48.910;9.478;2022-11-23T01:36:21;5.40;;;2.00;;
36283;SDS011;56085;48.910;9.478;2022-11-23T01:38:48;7.10;;;1.55;;
36283;SDS011;56085;48.910;9.478;2022-11-23T01:41:15;5.22;;;1.50;;
36283;SDS011;56085;48.910;9.478;2022-11-23T01:43:43;4.60;;;1.50;;
36283;SDS011;56085;48.910;9.478;2022-11-23T01:46:08;6.13;;;2.33;;
36283;SDS011;56085;48.910;9.478;2022-11-23T01:48:38;4.70;;;2.17;;
36283;SDS011;56085;48.910;9.478;2022-11-23T01:51:11;2.65;;;1.40;;
36283;SDS011;56085;48.910;9.478;2022-11-23T01:53:42;8.95;;;1.92;;
36283;SDS011;56085;48.910;9.478;2022-11-23T01:56:11;6.38;;;1.55;;
36283;SDS011;56085;48.910;9.478;2022-11-23T01:58:41;3.70;;;1.67;;
36283;SDS011;56085;48.910;9.478;2022-11-23T02:01:10;6.55;;;1.45;;
36283;SDS011;56085;48.910;9.478;2022-11-23T02:03:36;3.65;;;1.50;;
36283;SDS011;56085;48.910;9.478;2022-11-23T02:06:02;4.40;;;1.30;;
36283;SDS011;56085;48.910;9.478;2022-11-23T02:08:31;7.00;;;1.75;;
36283;SDS011;56085;48.910;9.478;2022-11-23T02:10:56;5.03;;;1.80;;
36283;SDS011;56085;48.910;9.478;2022-11-23T02:13:23;6.43;;;1.70;;
36283;SDS011;56085;48.910;9.478;2022-11-23T02:15:50;6.05;;;1.50;;
36283;SDS011;56085;48.910;9.478;2022-11-23T02:18:18;4.63;;;1.73;;
36283;SDS011;56085;48.910;9.478;2022-11-23T02:20:47;3.80;;;1.23;;
36283;SDS011;56085;48.910;9.478;2022-11-23T02:26:07;3.08;;;1.20;;
36283;SDS011;56085;48.910;9.478;2022-11-23T02:28:41;7.43;;;1.52;;
36283;SDS011;56085;48.910;9.478;2022-11-23T02:31:09;2.15;;;1.23;;
36283;SDS011;56085;48.910;9.478;2022-11-23T02:33:38;4.38;;;1.35;;
36283;SDS011;56085;48.910;9.478;2022-11-23T02:38:48;5.57;;;1.10;;
36283;SDS011;56085;48.910;9.478;2022-11-23T02:41:14;7.28;;;1.48;;
36283;SDS011;56085;48.910;9.478;2022-11-23T02:43:39;5.65;;;1.70;;
36283;SDS011;56085;48.910;9.478;2022-11-23T02:46:04;4.60;;;1.77;;
36283;SDS011;56085;48.910;9.478;2022-11-23T02:48:30;4.30;;;1.65;;
36283;SDS011;56085;48.910;9.478;2022-11-23T02:50:55;6.97;;;1.52;;
36283;SDS011;56085;48.910;9.478;2022-11-23T02:53:21;4.78;;;1.65;;
36283;SDS011;56085;48.910;9.478;2022-11-23T02:55:46;5.72;;;1.48;;
36283;SDS011;56085;48.910;9.478;2022-11-23T02:58:11;4.13;;;1.42;;
36283;SDS011;56085;48.910;9.478;2022-11-23T03:00:37;5.78;;;1.52;;
36283;SDS011;56085;48.910;9.478;2022-11-23T03:03:02;8.63;;;1.98;;
36283;SDS011;56085;48.910;9.478;2022-11-23T03:05:28;3.80;;;1.60;;
36283;SDS011;56085;48.910;9.478;2022-11-23T03:07:53;3.00;;;1.58;;
36283;SDS011;56085;48.910;9.478;2022-11-23T03:10:19;9.52;;;1.75;;
36283;SDS011;56085;48.910;9.478;2022-11-23T03:12:44;3.25;;;1.00;;
36283;SDS011;56085;48.910;9.478;2022-11-23T03:15:10;5.03;;;1.83;;
36283;SDS011;56085;48.910;9.478;2022-11-23T03:17:35;5.43;;;1.17;;
36283;SDS011;56085;48.910;9.478;2022-11-23T03:20:00;3.30;;;1.25;;
36283;SDS011;56085;48.910;9.478;2022-11-23T03:22:26;4.18;;;1.40;;
36283;SDS011;56085;48.910;9.478;2022-11-23T03:24:52;3.85;;;1.42;;
36283;SDS011;56085;48.910;9.478;2022-11-23T03:27:17;4.28;;;1.48;;
36283;SDS011;56085;48.910;9.478;2022-11-23T03:29:42;3.88;;;1.45;;
36283;SDS011;56085;48.910;9.478;2022-11-23T03:32:08;3.25;;;1.30;;
36283;SDS011;56085;48.910;9.478;2022-11-23T03:34:33;1.95;;;1.10;;
36283;SDS011;56085;48.910;9.478;2022-11-23T03:36:58;4.63;;;1.70;;
36283;SDS011;56085;48.910;9.478;2022-11-23T03:39:24;3.40;;;1.25;;
36283;SDS011;56085;48.910;9.478;2022-11-23T03:41:49;2.40;;;1.17;;
36283;SDS011;56085;48.910;9.478;2022-11-23T03:44:14;5.88;;;1.38;;
36283;SDS011;56085;48.910;9.478;2022-11-23T03:46:40;3.17;;;1.45;;
36283;SDS011;56085;48.910;9.478;2022-11-23T03:49:05;4.32;;;1.55;;
36283;SDS011;56085;48.910;9.478;2022-11-23T03:51:30;4.25;;;1.83;;
36283;SDS011;56085;48.910;9.478;2022-11-23T03:53:56;6.78;;;2.70;;
36283;SDS011;56085;48.910;9.478;2022-11-23T03:56:21;7.03;;;2.17;;
36283;SDS011;56085;48.910;9.478;2022-11-23T03:58:46;4.85;;;2.47;;
36283;SDS011;56085;48.910;9.478;2022-11-23T04:01:12;4.85;;;2.53;;
36283;SDS011;56085;48.910;9.478;2022-11-23T04:03:37;6.75;;;2.90;;
36283;SDS011;56085;48.910;9.478;2022-11-23T04:06:02;8.82;;;3.67;;
36283;SDS011;56085;48.910;9.478;2022-11-23T04:08:27;10.95;;;3.20;;
36283;SDS011;56085;48.910;9.478;2022-11-23T04:10:55;9.43;;;3.17;;
36283;SDS011;56085;48.910;9.478;2022-11-23T04:13:21;7.82;;;3.15;;
36283;SDS011;56085;48.910;9.478;2022-11-23T04:15:47;8.25;;;3.17;;
36283;SDS011;56085;48.910;9.478;2022-11-23T04:18:12;8.00;;;3.03;;
36283;SDS011;56085;48.910;9.478;2022-11-23T04:20:38;4.38;;;2.25;;
36283;SDS011;56085;48.910;9.478;2022-11-23T04:23:03;5.30;;;2.40;;
36283;SDS011;56085;48.910;9.478;2022-11-23T04:25:28;4.10;;;1.83;;
36283;SDS011;56085;48.910;9.478;2022-11-23T04:27:53;4.18;;;1.85;;
36283;SDS011;56085;48.910;9.478;2022-11-23T04:30:19;5.45;;;1.55;;
36283;SDS011;56085;48.910;9.478;2022-11-23T04:32:44;4.50;;;2.22;;
36283;SDS011;56085;48.910;9.478;2022-11-23T04:35:10;6.07;;;2.53;;
36283;SDS011;56085;48.910;9.478;2022-11-23T04:37:35;6.47;;;3.03;;
36283;SDS011;56085;48.910;9.478;2022-11-23T04:40:00;6.40;;;2.75;;
36283;SDS011;56085;48.910;9.478;2022-11-23T04:42:25;4.95;;;2.63;;
36283;SDS011;56085;48.910;9.478;2022-11-23T04:44:51;3.40;;;1.60;;
36283;SDS011;56085;48.910;9.478;2022-11-23T04:47:16;6.72;;;2.00;;
36283;SDS011;56085;48.910;9.478;2022-11-23T04:49:41;5.22;;;2.40;;
36283;SDS011;56085;48.910;9.478;2022-11-23T04:52:07;6.15;;;1.65;;
36283;SDS011;56085;48.910;9.478;2022-11-23T04:54:32;4.18;;;1.45;;
36283;SDS011;56085;48.910;9.478;2022-11-23T04:56:58;2.78;;;1.42;;
36283;SDS011;56085;48.910;9.478;2022-11-23T04:59:23;6.95;;;1.75;;
36283;SDS011;56085;48.910;9.478;2022-11-23T05:01:49;4.82;;;1.35;;
36283;SDS011;56085;48.910;9.478;2022-11-23T05:04:16;2.60;;;1.30;;
36283;SDS011;56085;48.910;9.478;2022-11-23T05:06:42;6.35;;;1.95;;
36283;SDS011;56085;48.910;9.478;2022-11-23T05:09:07;4.78;;;1.60;;
36283;SDS011;56085;48.910;9.478;2022-11-23T05:11:33;3.03;;;1.23;;
36283;SDS011;56085;48.910;9.478;2022-11-23T05:13:58;4.95;;;1.60;;
36283;SDS011;56085;48.910;9.478;2022-11-23T05:16:23;3.25;;;1.33;;
36283;SDS011;56085;48.910;9.478;2022-11-23T05:18:48;4.75;;;1.42;;
36283;SDS011;56085;48.910;9.478;2022-11-23T05:21:14;5.35;;;1.45;;
36283;SDS011;56085;48.910;9.478;2022-11-23T05:23:39;7.38;;;1.90;;
36283;SDS011;56085;48.910;9.478;2022-11-23T05:26:04;3.50;;;1.30;;
36283;SDS011;56085;48.910;9.478;2022-11-23T05:28:29;5.82;;;1.10;;
36283;SDS011;56085;48.910;9.478;2022-11-23T05:30:55;4.82;;;1.73;;
36283;SDS011;56085;48.910;9.478;2022-11-23T05:33:20;6.47;;;2.13;;
36283;SDS011;56085;48.910;9.478;2022-11-23T05:35:45;8.18;;;2.63;;
36283;SDS011;56085;48.910;9.478;2022-11-23T05:38:11;4.43;;;1.85;;
36283;SDS011;56085;48.910;9.478;2022-11-23T05:40:36;7.50;;;2.33;;
36283;SDS011;56085;48.910;9.478;2022-11-23T05:43:03;2.22;;;1.30;;
36283;SDS011;56085;48.910;9.478;2022-11-23T05:45:28;2.92;;;1.20;;
36283;SDS011;56085;48.910;9.478;2022-11-23T05:47:57;10.48;;;4.97;;
36283;SDS011;56085;48.910;9.478;2022-11-23T05:50:24;8.48;;;4.18;;
36283;SDS011;56085;48.910;9.478;2022-11-23T05:52:51;9.48;;;6.45;;
36283;SDS011;56085;48.910;9.478;2022-11-23T05:55:16;12.80;;;7.55;;
36283;SDS011;56085;48.910;9.478;2022-11-23T05:57:41;13.40;;;6.10;;
36283;SDS011;56085;48.910;9.478;2022-11-23T06:00:07;8.43;;;5.57;;
36283;SDS011;56085;48.910;9.478;2022-11-23T06:02:37;9.15;;;4.10;;
36283;SDS011;56085;48.910;9.478;2022-11-23T06:05:03;5.78;;;3.28;;
36283;SDS011;56085;48.910;9.478;2022-11-23T06:07:30;7.03;;;2.88;;
36283;SDS011;56085;48.910;9.478;2022-11-23T06:09:56;7.43;;;2.22;;
36283;SDS011;56085;48.910;9.478;2022-11-23T06:12:22;6.40;;;2.28;;
36283;SDS011;56085;48.910;9.478;2022-11-23T06:14:47;3.60;;;1.88;;
36283;SDS011;56085;48.910;9.478;2022-11-23T06:17:12;5.57;;;1.50;;
36283;SDS011;56085;48.910;9.478;2022-11-23T06:19:38;4.35;;;1.67;;
36283;SDS011;56085;48.910;9.478;2022-11-23T06:22:03;2.20;;;1.20;;
36283;SDS011;56085;48.910;9.478;2022-11-23T06:24:28;6.25;;;1.60;;
36283;SDS011;56085;48.910;9.478;2022-11-23T06:26:54;7.50;;;1.83;;
36283;SDS011;56085;48.910;9.478;2022-11-23T06:29:19;5.10;;;1.67;;
36283;SDS011;56085;48.910;9.478;2022-11-23T06:31:45;5.72;;;2.35;;
36283;SDS011;56085;48.910;9.478;2022-11-23T06:34:10;4.25;;;1.70;;
36283;SDS011;56085;48.910;9.478;2022-11-23T06:36:36;5.50;;;1.63;;
36283;SDS011;56085;48.910;9.478;2022-11-23T06:39:02;6.00;;;1.70;;
36283;SDS011;56085;48.910;9.478;2022-11-23T06:41:27;4.05;;;1.85;;
36283;SDS011;56085;48.910;9.478;2022-11-23T06:43:53;5.07;;;1.60;;
36283;SDS011;56085;48.910;9.478;2022-11-23T06:46:18;4.05;;;1.40;;
36283;SDS011;56085;48.910;9.478;2022-11-23T06:48:44;5.93;;;2.00;;
36283;SDS011;56085;48.910;9.478;2022-11-23T06:51:10;6.00;;;2.08;;
36283;SDS011;56085;48.910;9.478;2022-11-23T06:53:36;7.90;;;2.35;;
36283;SDS011;56085;48.910;9.478;2022-11-23T06:56:01;4.15;;;2.13;;
36283;SDS011;56085;48.910;9.478;2022-11-23T06:58:27;5.88;;;2.35;;
36283;SDS011;56085;48.910;9.478;2022-11-23T07:00:53;4.85;;;2.17;;
36283;SDS011;56085;48.910;9.478;2022-11-23T07:03:19;3.60;;;1.75;;
36283;SDS011;56085;48.910;9.478;2022-11-23T07:05:46;5.72;;;1.77;;
36283;SDS011;56085;48.910;9.478;2022-11-23T07:08:11;4.25;;;2.25;;
36283;SDS011;56085;48.910;9.478;2022-11-23T07:10:37;4.60;;;2.15;;
36283;SDS011;56085;48.910;9.478;2022-11-23T07:13:05;4.90;;;2.00;;
36283;SDS011;56085;48.910;9.478;2022-11-23T07:15:31;7.00;;;2.35;;
36283;SDS011;56085;48.910;9.478;2022-11-23T07:17:57;7.43;;;3.45;;
36283;SDS011;56085;48.910;9.478;2022-11-23T07:20:23;11.82;;;5.97;;
36283;SDS011;56085;48.910;9.478;2022-11-23T07:22:57;13.35;;;7.15;;
36283;SDS011;56085;48.910;9.478;2022-11-23T07:25:23;21.13;;;14.77;;
36283;SDS011;56085;48.910;9.478;2022-11-23T07:27:53;21.50;;;14.77;;
36283;SDS011;56085;48.910;9.478;2022-11-23T07:30:20;12.45;;;9.30;;
36283;SDS011;56085;48.910;9.478;2022-11-23T07:32:45;15.93;;;8.93;;
36283;SDS011;56085;48.910;9.478;2022-11-23T07:35:10;16.55;;;8.32;;
36283;SDS011;56085;48.910;9.478;2022-11-23T07:37:36;14.15;;;9.27;;
36283;SDS011;56085;48.910;9.478;2022-11-23T07:40:02;16.83;;;11.73;;
36283;SDS011;56085;48.910;9.478;2022-11-23T07:42:27;17.05;;;11.05;;
36283;SDS011;56085;48.910;9.478;2022-11-23T07:44:53;13.88;;;8.30;;
36283;SDS011;56085;48.910;9.478;2022-11-23T07:47:18;10.32;;;6.50;;
36283;SDS011;56085;48.910;9.478;2022-11-23T07:49:43;6.38;;;3.88;;
36283;SDS011;56085;48.910;9.478;2022-11-23T07:52:09;6.93;;;2.47;;
36283;SDS011;56085;48.910;9.478;2022-11-23T07:54:34;6.82;;;2.63;;
36283;SDS011;56085;48.910;9.478;2022-11-23T07:56:59;9.70;;;4.28;;
36283;SDS011;56085;48.910;9.478;2022-11-23T07:59:25;12.57;;;6.43;;
36283;SDS011;56085;48.910;9.478;2022-11-23T08:01:50;12.68;;;6.38;;
36283;SDS011;56085;48.910;9.478;2022-11-23T08:04:15;15.00;;;7.05;;
36283;SDS011;56085;48.910;9.478;2022-11-23T08:06:40;10.05;;;6.13;;
36283;SDS011;56085;48.910;9.478;2022-11-23T08:09:06;9.43;;;5.78;;
36283;SDS011;56085;48.910;9.478;2022-11-23T08:11:31;10.75;;;7.20;;
36283;SDS011;56085;48.910;9.478;2022-11-23T08:13:56;13.00;;;8.10;;
36283;SDS011;56085;48.910;9.478;2022-11-23T08:16:21;11.60;;;8.07;;
36283;SDS011;56085;48.910;9.478;2022-11-23T08:18:47;10.80;;;6.80;;
36283;SDS011;56085;48.910;9.478;2022-11-23T08:21:14;11.30;;;6.03;;
36283;SDS011;56085;48.910;9.478;2022-11-23T08:23:40;9.93;;;5.10;;
36283;SDS011;56085;48.910;9.478;2022-11-23T08:26:05;9.10;;;3.95;;
36283;SDS011;56085;48.910;9.478;2022-11-23T08:28:31;6.40;;;3.78;;
36283;SDS011;56085;48.910;9.478;2022-11-23T08:30:57;6.60;;;2.85;;
36283;SDS011;56085;48.910;9.478;2022-11-23T08:33:22;9.85;;;3.17;;
36283;SDS011;56085;48.910;9.478;2022-11-23T08:35:47;5.35;;;2.80;;
36283;SDS011;56085;48.910;9.478;2022-11-23T08:38:13;6.63;;;2.47;;
36283;SDS011;56085;48.910;9.478;2022-11-23T08:40:38;5.18;;;2.25;;
36283;SDS011;56085;48.910;9.478;2022-11-23T08:43:04;9.27;;;5.00;;
36283;SDS011;56085;48.910;9.478;2022-11-23T08:45:30;8.57;;;3.22;;
36283;SDS011;56085;48.910;9.478;2022-11-23T08:47:59;5.97;;;3.08;;
36283;SDS011;56085;48.910;9.478;2022-11-23T08:50:25;6.85;;;1.83;;
36283;SDS011;56085;48.910;9.478;2022-11-23T08:52:57;3.50;;;2.25;;
36283;SDS011;56085;48.910;9.478;2022-11-23T08:55:24;5.80;;;2.97;;
36283;SDS011;56085;48.910;9.478;2022-11-23T08:57:53;4.10;;;2.03;;
36283;SDS011;56085;48.910;9.478;2022-11-23T09:00:22;4.65;;;2.17;;
36283;SDS011;56085;48.910;9.478;2022-11-23T09:02:48;7.25;;;2.50;;
36283;SDS011;56085;48.910;9.478;2022-11-23T09:05:13;4.43;;;1.95;;
36283;SDS011;56085;48.910;9.478;2022-11-23T09:07:39;4.00;;;1.35;;
36283;SDS011;56085;48.910;9.478;2022-11-23T09:10:04;8.00;;;1.58;;
36283;SDS011;56085;48.910;9.478;2022-11-23T09:12:30;4.82;;;1.60;;
36283;SDS011;56085;48.910;9.478;2022-11-23T09:14:57;3.45;;;1.50;;
36283;SDS011;56085;48.910;9.478;2022-11-23T09:17:22;5.18;;;1.83;;
36283;SDS011;56085;48.910;9.478;2022-11-23T09:19:47;4.82;;;1.75;;
36283;SDS011;56085;48.910;9.478;2022-11-23T09:22:14;4.13;;;1.55;;
36283;SDS011;56085;48.910;9.478;2022-11-23T09:24:39;4.38;;;1.58;;
36283;SDS011;56085;48.910;9.478;2022-11-23T09:27:04;3.85;;;1.35;;
36283;SDS011;56085;48.910;9.478;2022-11-23T09:29:30;4.03;;;1.50;;
36283;SDS011;56085;48.910;9.478;2022-11-23T09:31:55;7.05;;;1.60;;
36283;SDS011;56085;48.910;9.478;2022-11-23T09:34:20;8.20;;;2.17;;
36283;SDS011;56085;48.910;9.478;2022-11-23T09:36:46;4.28;;;1.38;;
36283;SDS011;56085;48.910;9.478;2022-11-23T09:39:12;5.63;;;1.27;;
36283;SDS011;56085;48.910;9.478;2022-11-23T09:50:49;3.53;;;1.15;;
36283;SDS011;56085;48.910;9.478;2022-11-23T09:53:21;3.80;;;1.27;;
36283;SDS011;56085;48.910;9.478;2022-11-23T09:55:52;4.13;;;1.48;;
36283;SDS011;56085;48.910;9.478;2022-11-23T09:58:21;4.50;;;1.30;;
36283;SDS011;56085;48.910;9.478;2022-11-23T10:00:58;4.40;;;1.10;;
36283;SDS011;56085;48.910;9.478;2022-11-23T10:03:26;6.88;;;1.40;;
36283;SDS011;56085;48.910;9.478;2022-11-23T10:05:56;2.88;;;1.38;;
36283;SDS011;56085;48.910;9.478;2022-11-23T10:14:14;3.47;;;1.20;;
36283;SDS011;56085;48.910;9.478;2022-11-23T10:16:46;4.43;;;1.33;;
36283;SDS011;56085;48.910;9.478;2022-11-23T10:24:51;3.67;;;1.75;;
36283;SDS011;56085;48.910;9.478;2022-11-23T10:27:27;4.18;;;2.05;;
36283;SDS011;56085;48.910;9.478;2022-11-23T10:29:53;5.72;;;1.50;;
36283;SDS011;56085;48.910;9.478;2022-11-23T10:32:36;5.57;;;1.10;;
36283;SDS011;56085;48.910;9.478;2022-11-23T10:35:16;2.22;;;1.20;;
36283;SDS011;56085;48.910;9.478;2022-11-23T10:37:46;2.60;;;1.13;;
36283;SDS011;56085;48.910;9.478;2022-11-23T10:40:22;4.93;;;1.65;;
36283;SDS011;56085;48.910;9.478;2022-11-23T10:42:51;5.32;;;1.77;;
36283;SDS011;56085;48.910;9.478;2022-11-23T10:45:22;5.20;;;1.70;;
36283;SDS011;56085;48.910;9.478;2022-11-23T10:47:50;4.43;;;1.27;;
36283;SDS011;56085;48.910;9.478;2022-11-23T10:50:36;3.88;;;1.50;;
36283;SDS011;56085;48.910;9.478;2022-11-23T10:55:30;5.97;;;1.70;;
36283;SDS011;56085;48.910;9.478;2022-11-23T10:58:33;5.22;;;1.55;;
36283;SDS011;56085;48.910;9.478;2022-11-23T11:01:11;3.10;;;1.50;;
36283;SDS011;56085;48.910;9.478;2022-11-23T11:03:39;4.65;;;2.05;;
36283;SDS011;56085;48.910;9.478;2022-11-23T11:06:04;3.72;;;1.90;;
36283;SDS011;56085;48.910;9.478;2022-11-23T11:08:32;4.38;;;2.15;;
36283;SDS011;56085;48.910;9.478;2022-11-23T11:11:06;5.68;;;2.63;;
36283;SDS011;56085;48.910;9.478;2022-11-23T11:13:46;4.57;;;2.83;;
36283;SDS011;56085;48.910;9.478;2022-11-23T11:18:50;3.85;;;2.20;;
36283;SDS011;56085;48.910;9.478;2022-11-23T11:21:19;4.32;;;2.00;;
36283;SDS011;56085;48.910;9.478;2022-11-23T11:24:01;4.35;;;2.13;;
36283;SDS011;56085;48.910;9.478;2022-11-23T11:26:30;4.85;;;2.22;;
36283;SDS011;56085;48.910;9.478;2022-11-23T11:29:00;3.25;;;2.30;;
36283;SDS011;56085;48.910;9.478;2022-11-23T11:34:22;3.78;;;2.88;;
36283;SDS011;56085;48.910;9.478;2022-11-23T11:36:55;4.90;;;2.70;;
36283;SDS011;56085;48.910;9.478;2022-11-23T11:39:34;3.53;;;2.60;;
36283;SDS011;56085;48.910;9.478;2022-11-23T11:42:20;4.38;;;2.13;;
36283;SDS011;56085;48.910;9.478;2022-11-23T11:44:54;4.68;;;2.20;;
36283;SDS011;56085;48.910;9.478;2022-11-23T11:49:48;4.80;;;2.40;;
36283;SDS011;56085;48.910;9.478;2022-11-23T11:52:17;4.75;;;1.88;;
36283;SDS011;56085;48.910;9.478;2022-11-23T11:54:52;4.85;;;1.70;;
36283;SDS011;56085;48.910;9.478;2022-11-23T11:57:35;3.17;;;2.33;;
36283;SDS011;56085;48.910;9.478;2022-11-23T12:00:06;3.60;;;2.08;;
36283;SDS011;56085;48.910;9.478;2022-11-23T12:08:27;4.60;;;2.15;;
36283;SDS011;56085;48.910;9.478;2022-11-23T12:11:00;4.30;;;2.45;;
36283;SDS011;56085;48.910;9.478;2022-11-23T12:13:31;4.22;;;3.20;;
36283;SDS011;56085;48.910;9.478;2022-11-23T12:16:16;3.53;;;2.40;;
36283;SDS011;56085;48.910;9.478;2022-11-23T12:27:38;3.88;;;3.20;;
36283;SDS011;56085;48.910;9.478;2022-11-23T12:44:20;4.35;;;3.42;;
36283;SDS011;56085;48.910;9.478;2022-11-23T12:49:32;4.00;;;3.70;;
36283;SDS011;56085;48.910;9.478;2022-11-23T12:54:54;4.25;;;3.85;;
36283;SDS011;56085;48.910;9.478;2022-11-23T12:57:30;6.53;;;5.85;;
36283;SDS011;56085;48.910;9.478;2022-11-23T13:00:06;6.18;;;5.28;;
36283;SDS011;56085;48.910;9.478;2022-11-23T13:08:28;5.00;;;4.70;;
36283;SDS011;56085;48.910;9.478;2022-11-23T13:16:29;6.28;;;5.85;;
36283;SDS011;56085;48.910;9.478;2022-11-23T13:22:04;4.67;;;4.27;;
36283;SDS011;56085;48.910;9.478;2022-11-23T13:24:36;4.80;;;4.40;;
36283;SDS011;56085;48.910;9.478;2022-11-23T13:35:50;4.07;;;3.78;;
36283;SDS011;56085;48.910;9.478;2022-11-23T13:40:26;3.60;;;3.30;;
36283;SDS011;56085;48.910;9.478;2022-11-23T13:43:07;4.65;;;4.28;;
36283;SDS011;56085;48.910;9.478;2022-11-23T13:45:35;4.10;;;3.80;;
36283;SDS011;56085;48.910;9.478;2022-11-23T13:48:11;4.45;;;4.15;;
36283;SDS011;56085;48.910;9.478;2022-11-23T13:53:45;5.65;;;5.25;;
36283;SDS011;56085;48.910;9.478;2022-11-23T13:59:23;4.80;;;4.50;;
36283;SDS011;56085;48.910;9.478;2022-11-23T14:04:27;2.35;;;2.13;;
36283;SDS011;56085;48.910;9.478;2022-11-23T14:07:03;4.25;;;1.90;;
36283;SDS011;56085;48.910;9.478;2022-11-23T14:12:17;1.50;;;1.30;;
36283;SDS011;56085;48.910;9.478;2022-11-23T14:17:57;1.50;;;1.35;;
36283;SDS011;56085;48.910;9.478;2022-11-23T14:20:57;6.10;;;4.57;;
36283;SDS011;56085;48.910;9.478;2022-11-23T14:34:22;2.50;;;0.70;;
36283;SDS011;56085;48.910;9.478;2022-11-23T14:43:11;1.33;;;0.57;;
36283;SDS011;56085;48.910;9.478;2022-11-23T14:45:43;0.68;;;0.40;;
36283;SDS011;56085;48.910;9.478;2022-11-23T14:48:25;2.85;;;0.68;;
36283;SDS011;56085;48.910;9.478;2022-11-23T14:50:56;3.10;;;1.10;;
36283;SDS011;56085;48.910;9.478;2022-11-23T14:53:26;5.97;;;1.08;;
36283;SDS011;56085;48.910;9.478;2022-11-23T14:55:53;5.13;;;1.40;;
36283;SDS011;56085;48.910;9.478;2022-11-23T14:58:20;2.70;;;1.00;;
36283;SDS011;56085;48.910;9.478;2022-11-23T15:00:49;1.60;;;0.77;;
36283;SDS011;56085;48.910;9.478;2022-11-23T15:03:18;1.48;;;0.63;;
36283;SDS011;56085;48.910;9.478;2022-11-23T15:05:49;2.53;;;0.95;;
36283;SDS011;56085;48.910;9.478;2022-11-23T15:08:28;1.83;;;0.52;;
36283;SDS011;56085;48.910;9.478;2022-11-23T15:13:46;2.67;;;0.93;;
36283;SDS011;56085;48.910;9.478;2022-11-23T15:16:14;5.90;;;0.90;;
36283;SDS011;56085;48.910;9.478;2022-11-23T15:18:41;4.78;;;1.40;;
36283;SDS011;56085;48.910;9.478;2022-11-23T15:23:38;3.05;;;1.20;;
36283;SDS011;56085;48.910;9.478;2022-11-23T15:26:14;2.25;;;1.05;;
36283;SDS011;56085;48.910;9.478;2022-11-23T15:28:51;4.85;;;2.28;;
36283;SDS011;56085;48.910;9.478;2022-11-23T15:33:46;2.78;;;0.82;;
36283;SDS011;56085;48.910;9.478;2022-11-23T15:36:15;3.30;;;0.93;;
36283;SDS011;56085;48.910;9.478;2022-11-23T15:38:42;1.77;;;0.90;;
36283;SDS011;56085;48.910;9.478;2022-11-23T15:41:08;2.60;;;0.77;;
36283;SDS011;56085;48.910;9.478;2022-11-23T15:43:34;2.13;;;0.90;;
36283;SDS011;56085;48.910;9.478;2022-11-23T15:46:01;1.58;;;0.85;;
36283;SDS011;56085;48.910;9.478;2022-11-23T15:48:30;3.72;;;1.10;;
36283;SDS011;56085;48.910;9.478;2022-11-23T15:51:01;3.17;;;1.00;;
36283;SDS011;56085;48.910;9.478;2022-11-23T15:53:29;2.63;;;1.38;;
36283;SDS011;56085;48.910;9.478;2022-11-23T15:56:00;2.55;;;1.27;;
36283;SDS011;56085;48.910;9.478;2022-11-23T15:58:28;2.58;;;0.90;;
36283;SDS011;56085;48.910;9.478;2022-11-23T16:00:58;3.20;;;1.10;;
36283;SDS011;56085;48.910;9.478;2022-11-23T16:03:37;1.63;;;0.80;;
36283;SDS011;56085;48.910;9.478;2022-11-23T16:08:35;1.73;;;0.75;;
36283;SDS011;56085;48.910;9.478;2022-11-23T16:11:01;1.15;;;0.52;;
36283;SDS011;56085;48.910;9.478;2022-11-23T16:13:35;1.40;;;0.50;;
36283;SDS011;56085;48.910;9.478;2022-11-23T16:16:07;2.78;;;1.13;;
36283;SDS011;56085;48.910;9.478;2022-11-23T16:18:42;4.45;;;1.13;;
36283;SDS011;56085;48.910;9.478;2022-11-23T16:21:11;2.80;;;1.17;;
36283;SDS011;56085;48.910;9.478;2022-11-23T16:23:43;3.53;;;1.07;;
36283;SDS011;56085;48.910;9.478;2022-11-23T16:26:18;2.90;;;1.10;;
36283;SDS011;56085;48.910;9.478;2022-11-23T16:28:52;5.00;;;1.52;;
36283;SDS011;56085;48.910;9.478;2022-11-23T16:34:18;3.95;;;1.10;;
36283;SDS011;56085;48.910;9.478;2022-11-23T16:36:44;4.13;;;1.17;;
36283;SDS011;56085;48.910;9.478;2022-11-23T16:39:09;5.68;;;1.63;;
36283;SDS011;56085;48.910;9.478;2022-11-23T16:41:35;8.20;;;1.77;;
36283;SDS011;56085;48.910;9.478;2022-11-23T16:44:01;4.05;;;1.42;;
36283;SDS011;56085;48.910;9.478;2022-11-23T16:46:26;3.90;;;1.33;;
36283;SDS011;56085;48.910;9.478;2022-11-23T16:48:51;3.00;;;1.50;;
36283;SDS011;56085;48.910;9.478;2022-11-23T16:51:19;3.65;;;1.70;;
36283;SDS011;56085;48.910;9.478;2022-11-23T16:53:45;3.55;;;1.58;;
36283;SDS011;56085;48.910;9.478;2022-11-23T16:56:21;4.95;;;1.77;;
36283;SDS011;56085;48.910;9.478;2022-11-23T16:58:47;4.72;;;1.40;;
36283;SDS011;56085;48.910;9.478;2022-11-23T17:01:19;6.75;;;2.53;;
36283;SDS011;56085;48.910;9.478;2022-11-23T17:03:47;7.65;;;3.38;;
36283;SDS011;56085;48.910;9.478;2022-11-23T17:06:14;9.02;;;2.85;;
36283;SDS011;56085;48.910;9.478;2022-11-23T17:08:41;13.68;;;8.45;;
36283;SDS011;56085;48.910;9.478;2022-11-23T17:11:11;6.50;;;3.47;;